KLIC

Limon Municipal Airport

Limon, Colorado, USA
METAR KLIC 221455Z AUTO 15005KT 10SM CLR 13/07 A3003 RMK AO2 SLP118 T01330067 51008
Observed Flight Rules
May-22 @ 14:55 UTC (25 minutes ago) Visual Flight Rules
Wind Visibility Clouds
150° at 5 knots 10 miles
  • Clear skies
Temperatures Readings
Current 13°C / 55°F
Dewpoint 7°C / 45°F
Humidity 67%
Altimeter 30.03" Hg
Pressure 1011.8 hPa
Elevation 1630
METAR KLIC 221455Z AUTO 15005KT 10SM CLR 13/07 A3003 RMK AO2 SLP118 T01330067 51008
Observed Flight Rules
May-22 @ 14:55 UTC
(25 minutes ago)
VFR
Wind Visibility
150° at 5 knots 10 miles
Clouds
  • Clear skies
Temperature Dewpoint
13°C / 55°F 7°C / 45°F
Humidity Altimeter Pressure
67% 30.03" Hg 1011.8 hPa